This is the latest recevied weather packets stored in our database for station/object ED3YAB-7. If no packets are shown the sender has not sent any weather packets the latest 10 day(s).
| Time | Temp. | Humidity | Pressure | Rain* | Wind** | Luminosity | Snow |
|---|---|---|---|---|---|---|---|
| 1778244493 | 26.67° C | 28% | 1018.9 hPa | - | - | - | - |
| 1778243292 | 23.33° C | 35% | 1019.1 hPa | - | - | - | - |
| 1778242100 | 22.22° C | 37% | 1019.1 hPa | - | - | - | - |
| 1778242092 | 22.22° C | 37% | 1019.1 hPa | - | - | - | - |
| 1778240892 | 21.67° C | 38% | 1019 hPa | - | - | - | - |
| 1778239692 | 22.22° C | 36% | 1019 hPa | - | - | - | - |
| 1778238492 | 23.33° C | 34% | 1019.1 hPa | - | - | - | - |
| 1778237299 | 21.67° C | 37% | 1019 hPa | - | - | - | - |
| 1778237292 | 21.67° C | 37% | 1019 hPa | - | - | - | - |
| 1778236099 | 22.22° C | 36% | 1019.2 hPa | - | - | - | - |
| 1778236092 | 22.22° C | 36% | 1019.2 hPa | - | - | - | - |
| 1778234901 | 23.33° C | 37% | 1019.4 hPa | - | - | - | - |
| 1778234893 | 23.33° C | 37% | 1019.4 hPa | - | - | - | - |
| 1778233701 | 20.56° C | 41% | 1019.4 hPa | - | - | - | - |
| 1778233693 | 20.56° C | 41% | 1019.4 hPa | - | - | - | - |
| 1778232500 | 20° C | 41% | 1019.5 hPa | - | - | - | - |
| 1778232493 | 20° C | 41% | 1019.5 hPa | - | - | - | - |
| 1778230093 | 18.89° C | 40% | 1019.2 hPa | - | - | - | - |
| 1778228900 | 18.89° C | 43% | 1019.1 hPa | - | - | - | - |
| 1778228893 | 18.89° C | 43% | 1019.1 hPa | - | - | - | - |
| 1778227692 | 17.78° C | 45% | 1018.8 hPa | - | - | - | - |
| 1778226500 | 16.67° C | 48% | 1018.6 hPa | - | - | - | - |
| 1778226492 | 16.67° C | 48% | 1018.6 hPa | - | - | - | - |
| 1778225292 | 15.56° C | 51% | 1018.7 hPa | - | - | - | - |
| 1778224092 | 14.44° C | 53% | 1018.4 hPa | - | - | - | - |
* Rain since midnight (hover to see other rain measurements)
** Current wind speed in m/s (hover to see current wind gust speed)